Time;durP1;ratioP1;P1;durP2;ratioP2;P2;SDS_P1;SDS_P2;PMS_P1;PMS_P2;Temp;Humidity;BMP_temperature;BMP_pressure;BME280_temperature;BME280_humidity;BME280_pressure;Samples;Min_cycle;Max_cycle;Signal;HPM_P1;HPM_P2
2022/10/12 00:01:25;;;;;;;20.23;10.93;;;;;;;13.75;100.00;98258.50;5066229;28;20035;-76
2022/10/12 00:03:50;;;;;;;17.35;9.57;;;;;;;13.65;100.00;98250.13;5089388;28;20042;-77
2022/10/12 00:06:18;;;;;;;20.85;10.45;;;;;;;13.73;100.00;98260.41;5089705;28;20024;-77
2022/10/12 00:08:45;;;;;;;17.73;9.77;;;;;;;13.71;100.00;98255.13;5073667;28;20024;-78
2022/10/12 00:11:15;;;;;;;19.67;11.07;;;;;;;13.69;100.00;98262.41;5063932;28;20465;-77
2022/10/12 00:13:40;;;;;;;18.83;11.13;;;;;;;13.63;100.00;98261.97;5072636;28;20035;-77
2022/10/12 00:16:08;;;;;;;23.05;11.02;;;;;;;13.66;100.00;98272.53;5054013;28;20032;-76
2022/10/12 00:18:34;;;;;;;20.00;10.95;;;;;;;13.70;100.00;98277.59;5078014;28;20035;-77
2022/10/12 00:21:14;;;;;;;21.50;11.95;;;;;;;13.58;100.00;98275.66;5072617;28;20402;-78
2022/10/12 00:23:41;;;;;;;22.42;11.43;;;;;;;13.54;100.00;98268.75;5061600;28;20055;-77
2022/10/12 00:26:09;;;;;;;18.20;10.80;;;;;;;13.58;100.00;98289.13;5072803;28;20024;-76
2022/10/12 00:28:34;;;;;;;24.17;10.50;;;;;;;13.62;100.00;98289.78;5072319;28;20514;-76
2022/10/12 00:31:00;;;;;;;20.92;10.93;;;;;;;13.63;100.00;98284.31;5066202;28;20028;-76
2022/10/12 00:33:27;;;;;;;20.25;11.30;;;;;;;13.62;100.00;98279.03;5070568;28;20415;-76
2022/10/12 00:35:53;;;;;;;17.63;10.25;;;;;;;13.56;100.00;98286.53;5089394;28;20399;-76
2022/10/12 00:38:20;;;;;;;24.23;11.93;;;;;;;13.56;100.00;98281.16;5072489;28;20074;-77
2022/10/12 00:40:46;;;;;;;26.60;13.13;;;;;;;13.49;100.00;98279.81;5089147;28;20411;-76
2022/10/12 00:43:37;;;;;;;22.70;12.98;;;;;;;13.52;100.00;98300.25;5083978;28;20479;-76
2022/10/12 00:46:23;;;;;;;20.40;12.05;;;;;;;13.49;100.00;98303.13;5072622;28;20032;-77
2022/10/12 00:48:59;;;;;;;22.02;12.00;;;;;;;13.45;100.00;98313.19;5082901;28;20032;-77
2022/10/12 00:51:25;;;;;;;26.45;13.57;;;;;;;13.39;100.00;98297.44;5054804;28;20421;-76
2022/10/12 00:53:59;;;;;;;28.30;14.23;;;;;;;13.43;100.00;98307.06;5063503;28;20025;-76
2022/10/12 00:56:27;;;;;;;25.55;13.23;;;;;;;13.58;100.00;98305.25;5073501;28;20069;-76
2022/10/12 00:58:53;;;;;;;21.50;11.80;;;;;;;13.64;100.00;98293.25;5073401;28;20514;-76
2022/10/12 01:01:20;;;;;;;27.77;12.23;;;;;;;13.64;100.00;98287.84;5076073;28;20107;-77
2022/10/12 01:03:46;;;;;;;22.38;11.27;;;;;;;13.60;100.00;98284.50;5092794;28;20031;-76
2022/10/12 01:06:12;;;;;;;22.67;11.82;;;;;;;13.54;100.00;98296.50;5063670;28;20060;-76
2022/10/12 01:08:38;;;;;;;22.58;12.30;;;;;;;13.51;100.00;98301.19;5055746;28;20564;-77
2022/10/12 01:11:04;;;;;;;20.95;12.52;;;;;;;13.51;100.00;98310.13;5078166;28;20483;-77
2022/10/12 01:13:30;;;;;;;26.75;12.48;;;;;;;13.43;100.00;98301.69;5075460;28;20024;-77
2022/10/12 01:16:05;;;;;;;24.50;12.80;;;;;;;13.56;100.00;98312.53;5092732;28;20046;-76
2022/10/12 01:18:36;;;;;;;22.08;12.60;;;;;;;13.50;100.00;98313.75;5075551;28;20126;-78
2022/10/12 01:21:22;;;;;;;23.58;12.77;;;;;;;13.51;100.00;98315.50;5079039;28;20029;-77
2022/10/12 01:24:33;;;;;;;20.48;12.38;;;;;;;13.38;100.00;98298.38;5054860;28;20051;-76
2022/10/12 01:27:36;;;;;;;25.67;13.43;;;;;;;13.37;100.00;98317.31;5072096;28;20032;-77
2022/10/12 01:30:22;;;;;;;;;;;;;;;13.36;100.00;98319.13;5072843;28;20559;-75
2022/10/12 01:33:42;;;;;;;29.25;13.48;;;;;;;13.36;100.00;98321.81;5091070;28;20306;-76
2022/10/12 01:36:32;;;;;;;26.10;13.35;;;;;;;13.41;100.00;98314.31;5034310;28;20056;-77
2022/10/12 01:39:20;;;;;;;24.52;13.13;;;;;;;13.41;100.00;98324.25;5073750;28;20446;-78
2022/10/12 01:41:49;;;;;;;30.13;13.90;;;;;;;13.36;100.00;98319.13;5075215;28;20495;-77
2022/10/12 01:44:22;;;;;;;24.98;13.98;;;;;;;13.37;100.00;98328.94;5075156;28;20077;-78
2022/10/12 01:46:49;;;;;;;24.80;12.20;;;;;;;13.32;100.00;98333.69;5092514;28;20031;-78
2022/10/12 01:49:17;;;;;;;20.63;11.98;;;;;;;13.35;100.00;98333.50;5071689;28;20119;-77
2022/10/12 01:51:43;;;;;;;20.52;12.68;;;;;;;13.35;100.00;98341.56;5062492;28;20036;-78
2022/10/12 01:54:37;;;;;;;22.25;11.77;;;;;;;13.32;100.00;98340.91;5091776;28;20028;-78
2022/10/12 01:57:31;;;;;;;29.25;12.60;;;;;;;13.24;100.00;98337.81;5091739;28;20103;-78
2022/10/12 02:00:04;;;;;;;21.83;11.73;;;;;;;13.19;100.00;98346.16;5074816;28;20039;-77
2022/10/12 02:02:51;;;;;;;32.80;12.27;;;;;;;13.18;100.00;98352.47;5074960;28;20043;-76
2022/10/12 02:05:37;;;;;;;20.20;11.43;;;;;;;13.10;100.00;98349.41;5090635;28;20372;-77
2022/10/12 02:08:16;;;;;;;21.88;11.57;;;;;;;13.12;100.00;98343.91;5093067;28;20028;-77
2022/10/12 02:10:47;;;;;;;26.15;11.77;;;;;;;13.09;100.00;98350.34;5076688;28;20116;-77
2022/10/12 02:13:14;;;;;;;21.27;12.43;;;;;;;13.07;100.00;98357.59;5069642;28;20558;-76
2022/10/12 02:15:41;;;;;;;31.63;12.27;;;;;;;13.08;100.00;98353.97;5060481;28;20028;-76
2022/10/12 02:18:09;;;;;;;24.70;13.05;;;;;;;13.02;100.00;98355.16;5074702;28;20065;-76
2022/10/12 02:20:36;;;;;;;26.45;12.43;;;;;;;13.05;100.00;98370.25;5071029;28;20028;-77
2022/10/12 02:23:02;;;;;;;26.08;13.32;;;;;;;13.02;100.00;98370.41;5054345;28;20020;-77
2022/10/12 02:25:30;;;;;;;28.27;12.80;;;;;;;12.82;100.00;98351.94;5062818;28;20472;-77
2022/10/12 02:28:04;;;;;;;28.40;13.00;;;;;;;12.85;100.00;98363.38;5064677;28;20108;-77
2022/10/12 02:30:37;;;;;;;24.55;13.07;;;;;;;12.88;100.00;98370.38;5066799;28;20103;-77
2022/10/12 02:33:18;;;;;;;20.27;12.43;;;;;;;12.91;100.00;98372.88;5093415;28;20015;-76
2022/10/12 02:36:05;;;;;;;27.90;13.13;;;;;;;12.92;100.00;98385.34;5074358;28;20132;-77
2022/10/12 02:38:44;;;;;;;36.33;12.77;;;;;;;12.92;100.00;98380.81;5090861;28;20032;-77
2022/10/12 02:41:14;;;;;;;25.63;12.50;;;;;;;12.89;100.00;98377.44;5065716;28;20044;-77
2022/10/12 02:43:55;;;;;;;24.75;13.18;;;;;;;12.77;100.00;98364.72;5091115;28;20023;-77
2022/10/12 02:46:22;;;;;;;21.63;11.90;;;;;;;12.84;100.00;98374.19;5073053;28;20032;-76
2022/10/12 02:48:48;;;;;;;23.35;12.05;;;;;;;12.77;100.00;98356.69;5054053;28;20019;-77
2022/10/12 02:51:14;;;;;;;26.70;12.70;;;;;;;12.78;100.00;98364.66;5071883;28;20024;-76
2022/10/12 02:53:40;;;;;;;19.05;11.38;;;;;;;12.83;100.00;98362.56;5076795;28;20028;-77
2022/10/12 02:56:10;;;;;;;21.60;11.80;;;;;;;12.82;100.00;98354.63;5073739;28;20115;-76
2022/10/12 02:58:35;;;;;;;21.30;11.73;;;;;;;12.89;100.00;98364.03;5054650;28;20028;-76
2022/10/12 03:01:01;;;;;;;24.17;12.98;;;;;;;12.87;100.00;98364.13;5070129;28;20039;-78
2022/10/12 03:03:27;;;;;;;26.95;13.07;;;;;;;12.86;100.00;98365.06;5053657;28;20028;-78
2022/10/12 03:05:52;;;;;;;25.23;12.73;;;;;;;12.76;100.00;98357.66;5066751;28;20034;-76
2022/10/12 03:08:18;;;;;;;26.20;13.85;;;;;;;12.81;100.00;98363.63;5065574;28;20063;-77
2022/10/12 03:10:43;;;;;;;28.98;13.80;;;;;;;12.83;100.00;98369.75;5087963;28;20124;-77
2022/10/12 03:13:09;;;;;;;28.95;13.77;;;;;;;12.85;100.00;98367.88;5070750;28;20423;-77
2022/10/12 03:15:34;;;;;;;32.58;15.25;;;;;;;12.82;100.00;98363.53;5070020;28;20043;-76
2022/10/12 03:18:00;;;;;;;29.67;14.30;;;;;;;12.73;100.00;98364.06;5061531;28;20024;-77
2022/10/12 03:20:25;;;;;;;29.90;14.10;;;;;;;12.71;100.00;98357.03;5053315;28;20040;-77
2022/10/12 03:22:51;;;;;;;31.38;14.40;;;;;;;12.72;100.00;98373.06;5053502;28;20126;-77
2022/10/12 03:25:17;;;;;;;29.83;14.98;;;;;;;12.81;100.00;98377.03;5060987;28;20028;-77
2022/10/12 03:27:42;;;;;;;34.90;14.43;;;;;;;12.81;100.00;98371.66;5070436;28;20028;-76
2022/10/12 03:30:10;;;;;;;32.20;15.55;;;;;;;12.82;100.00;98370.72;5088724;28;20446;-77
2022/10/12 03:32:36;;;;;;;37.63;17.02;;;;;;;12.81;100.00;98382.41;5071659;28;20495;-78
2022/10/12 03:35:02;;;;;;;32.35;16.60;;;;;;;12.87;100.00;98390.09;5052811;28;20024;-77
2022/10/12 03:37:28;;;;;;;33.17;15.82;;;;;;;12.86;100.00;98385.69;5066100;28;20495;-82
2022/10/12 03:39:53;;;;;;;33.47;15.07;;;;;;;12.86;100.00;98386.56;5065236;28;20029;-78
2022/10/12 03:42:19;;;;;;;27.90;14.82;;;;;;;12.91;100.00;98402.41;5086374;28;20044;-77
2022/10/12 03:44:46;;;;;;;28.85;14.93;;;;;;;12.94;100.00;98399.56;5073417;28;20504;-77
2022/10/12 03:47:11;;;;;;;27.95;13.50;;;;;;;13.01;100.00;98406.31;5089808;28;20089;-77
2022/10/12 03:49:37;;;;;;;26.55;13.52;;;;;;;13.03;100.00;98399.88;5072914;28;20027;-77
2022/10/12 03:52:03;;;;;;;27.92;14.32;;;;;;;13.02;100.00;98386.53;5064569;28;20023;-78
2022/10/12 03:54:29;;;;;;;33.47;16.70;;;;;;;13.02;100.00;98386.53;5073087;28;20119;-77
2022/10/12 03:56:55;;;;;;;35.92;15.60;;;;;;;13.10;100.00;98392.38;5052837;28;20113;-77
2022/10/12 03:59:20;;;;;;;31.88;14.70;;;;;;;13.16;100.00;98394.69;5052698;28;20043;-76
2022/10/12 04:01:46;;;;;;;32.70;15.30;;;;;;;13.13;100.00;98384.13;5052740;28;20024;-77
2022/10/12 04:04:11;;;;;;;26.42;13.85;;;;;;;13.19;100.00;98391.84;5061364;28;20069;-78
2022/10/12 04:06:37;;;;;;;27.73;14.65;;;;;;;13.21;100.00;98381.84;5067640;28;20024;-77
2022/10/12 04:09:03;;;;;;;26.33;14.50;;;;;;;13.17;100.00;98388.34;5070137;28;20035;-79
2022/10/12 04:11:28;;;;;;;29.48;14.70;;;;;;;13.19;100.00;98385.59;5065629;28;20047;-77
2022/10/12 04:13:54;;;;;;;28.00;15.07;;;;;;;13.14;100.00;98384.97;5056243;28;20109;-77
2022/10/12 04:16:19;;;;;;;30.90;14.80;;;;;;;13.20;100.00;98406.09;5051596;28;20128;-78
2022/10/12 04:18:45;;;;;;;30.50;15.15;;;;;;;13.23;100.00;98405.94;5059760;28;20021;-76
2022/10/12 04:21:15;;;;;;;28.95;14.65;;;;;;;13.24;100.00;98413.91;5052876;28;20027;-78
2022/10/12 04:23:41;;;;;;;28.75;14.63;;;;;;;13.28;100.00;98411.91;5069821;28;20391;-77
2022/10/12 04:26:06;;;;;;;28.27;15.20;;;;;;;13.35;100.00;98419.50;5068322;28;20493;-77
2022/10/12 04:28:32;;;;;;;25.15;14.35;;;;;;;13.31;100.00;98404.53;5054724;28;20170;-76
2022/10/12 04:30:58;;;;;;;32.40;15.02;;;;;;;13.27;100.00;98402.13;5059369;28;20414;-76
2022/10/12 04:33:24;;;;;;;27.98;15.48;;;;;;;13.32;100.00;98406.25;5086916;28;20023;-77
2022/10/12 04:35:49;;;;;;;39.60;23.65;;;;;;;13.36;100.00;98409.63;5073066;28;20043;-76
2022/10/12 04:38:15;;;;;;;30.88;16.08;;;;;;;13.34;100.00;98415.09;5056461;28;20032;-76
2022/10/12 04:40:45;;;;;;;27.30;14.40;;;;;;;13.31;100.00;98411.72;5080991;28;20101;-77
2022/10/12 04:43:11;;;;;;;25.25;14.63;;;;;;;13.27;100.00;98402.13;5068236;28;20492;-75
2022/10/12 04:45:36;;;;;;;32.05;16.70;;;;;;;13.30;100.00;98405.50;5062264;28;20039;-76
2022/10/12 04:48:02;;;;;;;32.13;16.35;;;;;;;13.28;100.00;98398.47;5093110;28;20023;-77
2022/10/12 04:50:27;;;;;;;32.60;15.45;;;;;;;13.25;100.00;98402.22;5076086;28;20031;-77
2022/10/12 04:52:53;;;;;;;39.60;18.92;;;;;;;13.34;100.00;98415.09;5076116;28;20047;-77
2022/10/12 04:55:18;;;;;;;34.45;19.15;;;;;;;13.28;100.00;98418.16;5062578;28;20403;-76
2022/10/12 04:57:44;;;;;;;32.45;18.05;;;;;;;13.14;100.00;98415.41;5066919;28;20398;-76
2022/10/12 05:00:10;;;;;;;33.58;19.08;;;;;;;13.07;100.00;98414.84;5094586;28;20020;-76
2022/10/12 05:02:36;;;;;;;32.85;19.10;;;;;;;13.07;100.00;98422.06;5092796;28;20035;-76
2022/10/12 05:05:01;;;;;;;28.90;16.73;;;;;;;12.92;100.00;98425.63;5082225;28;20016;-76
2022/10/12 05:07:27;;;;;;;38.75;16.77;;;;;;;12.91;100.00;98427.44;5064165;28;20031;-77
2022/10/12 05:09:53;;;;;;;29.98;15.48;;;;;;;12.98;100.00;98438.72;5072358;28;20028;-75
2022/10/12 05:12:18;;;;;;;32.58;17.98;;;;;;;13.05;100.00;98440.94;5073822;28;20530;-76
2022/10/12 05:14:44;;;;;;;27.65;15.15;;;;;;;13.15;100.00;98446.69;5088675;28;20055;-76
2022/10/12 05:17:10;;;;;;;32.72;16.65;;;;;;;13.20;100.00;98459.84;5075700;28;20102;-76
2022/10/12 05:19:35;;;;;;;25.98;13.82;;;;;;;13.23;100.00;98452.47;5075497;28;20020;-76
2022/10/12 05:22:01;;;;;;;24.70;14.55;;;;;;;13.25;100.00;98452.41;5092475;28;20458;-76
2022/10/12 05:24:27;;;;;;;21.88;12.93;;;;;;;13.28;100.00;98453.09;5059097;28;20025;-76
2022/10/12 05:26:53;;;;;;;27.77;13.95;;;;;;;13.31;100.00;98444.84;5086042;28;20032;-76
2022/10/12 05:29:18;;;;;;;25.10;13.43;;;;;;;13.27;100.00;98443.28;5072160;28;20060;-76
2022/10/12 05:31:44;;;;;;;29.02;15.15;;;;;;;13.23;100.00;98448.91;5055306;28;20032;-77
2022/10/12 05:34:09;;;;;;;29.33;14.20;;;;;;;13.14;100.00;98436.00;5066232;28;20111;-78
2022/10/12 05:36:35;;;;;;;26.20;13.98;;;;;;;13.19;100.00;98450.06;5060949;28;20104;-77
2022/10/12 05:39:00;;;;;;;27.25;13.95;;;;;;;13.22;100.00;98440.00;5070601;28;20028;-76
2022/10/12 05:41:26;;;;;;;27.85;14.43;;;;;;;13.34;100.00;98446.50;5087848;28;20048;-76
2022/10/12 05:43:52;;;;;;;23.80;13.43;;;;;;;13.33;100.00;98437.56;5091941;28;20471;-76
2022/10/12 05:46:18;;;;;;;27.73;14.25;;;;;;;13.45;100.00;98461.03;5072034;28;20016;-76
2022/10/12 05:48:44;;;;;;;31.25;14.98;;;;;;;13.41;100.00;98454.09;5087073;28;20472;-77
2022/10/12 05:51:09;;;;;;;42.00;17.65;;;;;;;13.52;100.00;98451.66;5075127;28;20031;-77
2022/10/12 05:53:35;;;;;;;28.65;15.13;;;;;;;13.41;100.00;98443.31;5086224;28;20078;-76
2022/10/12 05:56:01;;;;;;;27.67;15.48;;;;;;;13.51;100.00;98451.72;5089133;28;20035;-78
2022/10/12 05:58:28;;;;;;;38.40;22.13;;;;;;;13.59;100.00;98452.16;5075026;28;20058;-77
2022/10/12 06:00:54;;;;;;;39.13;19.15;;;;;;;13.62;100.00;98445.72;5089531;28;20480;-76
2022/10/12 06:03:20;;;;;;;33.05;17.20;;;;;;;13.60;100.00;98447.66;5074534;28;20016;-77
2022/10/12 06:05:46;;;;;;;30.27;15.98;;;;;;;13.60;100.00;98453.84;5065229;28;20416;-76
2022/10/12 06:08:12;;;;;;;30.23;15.82;;;;;;;13.78;100.00;98462.66;5067813;28;20467;-76
2022/10/12 06:10:43;;;;;;;25.17;14.57;;;;;;;13.93;100.00;98457.22;5061472;28;20024;-76
2022/10/12 06:13:09;;;;;;;24.27;13.07;;;;;;;13.98;100.00;98459.63;5071516;28;20020;-77
2022/10/12 06:15:35;;;;;;;24.50;13.32;;;;;;;13.95;100.00;98438.28;5054825;28;20388;-77
2022/10/12 06:18:01;;;;;;;25.20;13.23;;;;;;;13.87;100.00;98443.28;5054384;28;20075;-76
2022/10/12 06:20:26;;;;;;;24.80;13.40;;;;;;;14.01;100.00;98432.53;5071393;28;20105;-76
2022/10/12 06:22:52;;;;;;;25.52;13.43;;;;;;;14.13;100.00;98442.53;5054265;28;20028;-76
2022/10/12 06:25:17;;;;;;;25.83;13.30;;;;;;;14.06;100.00;98435.81;5054405;28;20482;-76
2022/10/12 06:27:46;;;;;;;25.17;13.85;;;;;;;14.04;100.00;98432.34;5071096;28;20503;-77
2022/10/12 06:30:12;;;;;;;28.23;14.52;;;;;;;14.06;100.00;98435.81;5063696;28;20056;-75
2022/10/12 06:32:38;;;;;;;25.35;13.30;;;;;;;14.08;100.00;98436.59;5086522;28;20035;-76
2022/10/12 06:35:04;;;;;;;28.38;14.55;;;;;;;14.15;100.00;98434.38;5054110;28;20029;-76
2022/10/12 06:37:30;;;;;;;36.80;21.45;;;;;;;14.01;100.00;98432.53;5070804;28;20056;-76
2022/10/12 06:39:56;;;;;;;46.65;23.33;;;;;;;13.97;100.00;98434.53;5081786;28;20055;-76
2022/10/12 06:42:22;;;;;;;35.00;18.48;;;;;;;13.89;100.00;98433.28;5056207;28;20064;-77
2022/10/12 06:44:47;;;;;;;37.22;19.70;;;;;;;13.89;100.00;98433.28;5090896;28;20107;-78
2022/10/12 06:47:13;;;;;;;35.50;19.75;;;;;;;13.88;100.00;98448.56;5056402;28;20028;-77
2022/10/12 06:49:38;;;;;;;38.63;20.25;;;;;;;13.93;100.00;98453.69;5083422;28;20024;-77
2022/10/12 06:52:04;;;;;;;48.42;20.17;;;;;;;13.96;100.00;98457.06;5073349;28;20032;-77
2022/10/12 06:54:30;;;;;;;40.95;19.38;;;;;;;13.97;100.00;98449.81;5054267;28;20028;-78
2022/10/12 06:56:55;;;;;;;47.65;21.30;;;;;;;14.02;100.00;98450.41;5053698;28;20029;-76
2022/10/12 06:59:21;;;;;;;137.43;32.97;;;;;;;14.09;100.00;98444.56;5063615;28;20067;-77
2022/10/12 07:01:48;;;;;;;46.30;19.98;;;;;;;14.23;100.00;98454.47;5073801;28;20096;-77
2022/10/12 07:04:15;;;;;;;44.53;17.85;;;;;;;14.36;100.00;98454.63;5090468;28;20040;-77
2022/10/12 07:06:40;;;;;;;35.00;17.83;;;;;;;14.49;100.00;98440.25;5086696;28;20016;-77
2022/10/12 07:09:06;;;;;;;42.25;17.75;;;;;;;14.45;100.00;98430.69;5053419;28;20476;-77
2022/10/12 07:11:32;;;;;;;40.60;17.15;;;;;;;14.51;100.00;98432.09;5059022;28;20653;-76
2022/10/12 07:13:57;;;;;;;50.83;22.13;;;;;;;14.52;100.00;98436.50;5073251;28;20494;-77
2022/10/12 07:16:23;;;;;;;38.10;17.98;;;;;;;14.74;100.00;98436.00;5067980;28;20024;-77
2022/10/12 07:18:49;;;;;;;53.45;27.40;;;;;;;14.83;100.00;98425.50;5073325;28;20024;-77
2022/10/12 07:21:15;;;;;;;38.55;22.17;;;;;;;15.02;100.00;98427.84;5073059;28;20602;-77
2022/10/12 07:23:41;;;;;;;41.63;18.23;;;;;;;14.97;100.00;98408.44;5069681;28;20099;-77
2022/10/12 07:26:07;;;;;;;29.05;15.38;;;;;;;15.00;100.00;98416.31;5054419;28;20084;-76
2022/10/12 07:28:34;;;;;;;24.60;13.55;;;;;;;15.10;100.00;98410.22;5067878;28;20024;-76
2022/10/12 07:31:04;;;;;;;30.95;13.75;;;;;;;15.25;100.00;98407.47;5072734;28;20081;-77
2022/10/12 07:33:33;;;;;;;23.92;12.40;;;;;;;15.12;100.00;98393.97;5054818;28;20495;-76
2022/10/12 07:35:59;;;;;;;36.22;14.30;;;;;;;15.17;100.00;98400.75;5075665;28;20020;-77
2022/10/12 07:38:24;;;;;;;27.33;16.30;;;;;;;15.18;100.00;98386.31;5079051;28;20394;-76
2022/10/12 07:40:50;;;;;;;28.35;14.88;;;;;;;15.23;100.00;98387.84;5089624;28;20123;-77
2022/10/12 07:43:16;;;;;;;31.38;15.05;;;;;;;15.19;100.00;98384.50;5072792;28;20161;-75
2022/10/12 07:45:42;;;;;;;23.40;14.27;;;;;;;15.01;100.00;98377.66;5064725;28;20399;-76
2022/10/12 07:48:08;;;;;;;34.60;14.73;;;;;;;14.81;100.00;98367.31;5071743;28;20502;-76
2022/10/12 07:50:33;;;;;;;34.00;16.17;;;;;;;14.81;100.00;98380.78;5055705;28;20035;-75
2022/10/12 07:52:59;;;;;;;30.55;15.85;;;;;;;14.99;100.00;98384.94;5084388;28;20019;-76
2022/10/12 07:55:25;;;;;;;27.58;15.00;;;;;;;15.23;100.00;98391.38;5074887;28;20028;-77
2022/10/12 07:57:50;;;;;;;32.85;15.80;;;;;;;15.36;100.00;98372.56;5052787;28;20158;-77
2022/10/12 08:00:16;;;;;;;23.90;13.13;;;;;;;15.46;100.00;98376.38;5052512;28;20021;-77
2022/10/12 08:02:41;;;;;;;23.98;14.38;;;;;;;15.68;100.00;98366.75;5063134;28;20035;-77
2022/10/12 08:05:07;;;;;;;26.48;15.43;;;;;;;15.79;100.00;98371.38;5055571;28;20025;-77
2022/10/12 08:07:33;;;;;;;28.88;14.73;;;;;;;15.83;100.00;98362.09;5069449;28;20039;-77
2022/10/12 08:09:59;;;;;;;27.77;14.98;;;;;;;15.86;100.00;98361.03;5074608;28;20019;-77
2022/10/12 08:12:24;;;;;;;26.15;14.43;;;;;;;15.92;100.00;98365.97;5069851;28;20036;-77
2022/10/12 08:14:50;;;;;;;31.40;15.25;;;;;;;16.12;100.00;98360.03;5070365;28;20024;-76
2022/10/12 08:17:15;;;;;;;24.45;14.40;;;;;;;16.31;100.00;98357.75;5069174;28;20021;-76
2022/10/12 08:19:41;;;;;;;27.67;15.32;;;;;;;16.25;100.00;98350.09;5060841;28;20028;-76
2022/10/12 08:22:06;;;;;;;26.40;14.98;;;;;;;16.25;100.00;98352.78;5052622;28;20443;-76
2022/10/12 08:24:34;;;;;;;26.35;14.70;;;;;;;16.36;100.00;98350.19;5052455;28;20021;-76
2022/10/12 08:26:59;;;;;;;26.02;13.63;;;;;;;16.43;100.00;98337.06;5081849;28;20047;-76
2022/10/12 08:29:25;;;;;;;35.17;15.02;;;;;;;16.57;100.00;98343.25;5053392;28;20028;-76
2022/10/12 08:31:51;;;;;;;21.90;14.20;;;;;;;16.78;100.00;98335.38;5052559;28;20415;-78
2022/10/12 08:34:17;;;;;;;27.90;14.35;;;;;;;16.92;100.00;98326.25;5068882;28;20531;-77
2022/10/12 08:36:43;;;;;;;25.38;13.82;;;;;;;16.97;100.00;98326.78;5065464;28;20115;-77
2022/10/12 08:39:08;;;;;;;44.22;14.27;;;;;;;16.90;100.00;98315.56;5076301;28;20533;-77
2022/10/12 08:41:43;;;;;;;25.85;13.40;;;;;;;16.95;100.00;98326.03;5060472;28;20048;-77
2022/10/12 08:44:13;;;;;;;29.85;14.40;;;;;;;17.02;100.00;98322.75;5088005;28;20436;-77
2022/10/12 08:46:39;;;;;;;27.92;14.30;;;;;;;17.09;100.00;98310.50;5072632;28;20028;-77
2022/10/12 08:49:19;;;;;;;29.00;15.23;;;;;;;17.05;100.00;98309.00;5072586;28;20110;-78
2022/10/12 08:51:56;;;;;;;27.60;15.95;;;;;;;16.86;100.00;98289.72;5056938;28;20028;-78
2022/10/12 08:54:24;;;;;;;35.80;17.67;;;;;;;16.79;100.00;98300.16;5052146;28;20025;-77
2022/10/12 08:56:54;;;;;;;27.48;15.38;;;;;;;17.12;100.00;98306.69;5070092;28;20503;-77
2022/10/12 08:59:20;;;;;;;29.20;16.90;;;;;;;17.39;100.00;98298.28;5055433;28;20123;-77
2022/10/12 09:02:04;;;;;;;36.72;14.80;;;;;;;17.79;100.00;98300.50;5089496;28;20067;-78
2022/10/12 09:04:42;;;;;;;28.80;14.90;;;;;;;18.02;100.00;98287.84;5061868;28;20028;-78
2022/10/12 09:07:23;;;;;;;34.60;16.73;;;;;;;18.15;100.00;98299.41;5068681;28;20524;-78
2022/10/12 09:10:19;;;;;;;30.33;15.93;;;;;;;18.72;99.14;98296.53;5052196;28;20488;-77
2022/10/12 09:13:13;;;;;;;45.15;23.52;;;;;;;18.69;96.52;98282.38;5076470;28;20483;-79
2022/10/12 09:15:59;;;;;;;30.40;15.23;;;;;;;19.36;93.02;98289.25;5092811;28;20058;-79
2022/10/12 09:18:39;;;;;;;35.42;17.55;;;;;;;19.31;92.60;98269.81;5063984;28;20063;-78
2022/10/12 09:21:06;;;;;;;38.42;16.05;;;;;;;19.54;89.65;98262.41;5072765;28;20020;-79
2022/10/12 09:23:40;;;;;;;31.85;16.20;;;;;;;19.58;88.77;98260.28;5063008;28;20103;-77
2022/10/12 09:26:12;;;;;;;24.05;14.93;;;;;;;19.70;87.15;98265.50;5063837;28;20028;-78
2022/10/12 09:28:43;;;;;;;27.50;15.50;;;;;;;19.53;86.62;98247.13;5086895;28;20028;-78
2022/10/12 09:31:09;;;;;;;28.40;15.70;;;;;;;19.53;86.86;98258.00;5074453;28;20480;-78
2022/10/12 09:33:44;;;;;;;27.00;16.17;;;;;;;19.45;85.68;98241.50;5080552;28;20033;-78
2022/10/12 09:36:16;;;;;;;34.28;17.73;;;;;;;19.15;87.59;98236.84;5063643;28;20520;-77
2022/10/12 09:38:41;;;;;;;26.57;16.67;;;;;;;18.79;89.94;98232.69;5072141;28;20020;-77
2022/10/12 09:41:18;;;;;;;40.38;17.30;;;;;;;18.78;90.76;98235.53;5055222;28;20595;-79
2022/10/12 09:43:43;;;;;;;36.00;16.67;;;;;;;18.62;90.79;98216.97;5069040;28;20035;-77
2022/10/12 09:46:12;;;;;;;29.35;15.98;;;;;;;18.67;91.69;98224.72;5091544;28;20020;-77
2022/10/12 09:48:55;;;;;;;30.73;15.63;;;;;;;18.72;89.96;98230.63;5080499;28;20027;-79
2022/10/12 09:51:20;;;;;;;26.58;16.25;;;;;;;18.68;88.79;98219.16;5065156;28;20050;-78
2022/10/12 09:53:48;;;;;;;27.75;16.08;;;;;;;18.56;92.70;98220.19;5075193;28;20542;-79
2022/10/12 09:56:37;;;;;;;28.38;15.55;;;;;;;18.95;90.69;98224.97;5083579;28;20130;-79
2022/10/12 09:59:34;;;;;;;24.65;14.15;;;;;;;19.22;86.79;98210.91;5067767;28;20051;-78
2022/10/12 10:02:34;;;;;;;25.17;14.70;;;;;;;19.57;85.15;98220.56;5066755;28;20036;-79
2022/10/12 10:05:22;;;;;;;26.20;14.85;;;;;;;19.59;84.46;98210.44;5031505;28;20492;-78
2022/10/12 10:07:47;;;;;;;30.95;15.15;;;;;;;19.66;82.88;98203.47;5071876;28;20039;-79
2022/10/12 10:10:17;;;;;;;28.27;14.35;;;;;;;19.77;83.04;98206.09;5071659;28;20107;-78
2022/10/12 10:12:47;;;;;;;25.08;13.73;;;;;;;19.61;82.06;98179.47;5074971;28;20023;-78
2022/10/12 10:15:29;;;;;;;20.25;12.45;;;;;;;20.07;77.67;98187.06;5091222;28;20459;-80
2022/10/12 10:18:00;;;;;;;27.13;13.82;;;;;;;20.24;77.12;98180.94;5054732;28;20028;-78
2022/10/12 10:20:32;;;;;;;30.67;12.25;;;;;;;20.67;75.15;98177.94;5054386;28;20040;-79
2022/10/12 10:22:58;;;;;;;21.70;12.90;;;;;;;20.64;73.55;98164.59;5077644;28;20390;-78
2022/10/12 10:25:24;;;;;;;24.42;12.60;;;;;;;21.01;72.48;98165.56;5080820;28;20027;-78
2022/10/12 10:28:18;;;;;;;24.55;13.85;;;;;;;21.03;72.12;98160.88;5059335;28;20028;-78
2022/10/12 10:30:55;;;;;;;20.88;12.73;;;;;;;20.45;73.89;98154.59;5090804;28;20101;-78
2022/10/12 10:33:20;;;;;;;22.77;11.93;;;;;;;20.56;73.81;98153.56;5056807;28;20450;-78
2022/10/12 10:36:10;;;;;;;22.80;12.90;;;;;;;20.46;74.17;98149.97;5054406;28;20029;-78
2022/10/12 10:39:05;;;;;;;29.17;13.02;;;;;;;20.17;75.58;98144.50;5079212;28;20042;-78
2022/10/12 10:41:36;;;;;;;29.52;14.20;;;;;;;20.39;74.45;98143.41;5043068;28;20460;-78
2022/10/12 10:44:02;;;;;;;26.67;13.77;;;;;;;20.44;74.16;98125.69;5059918;28;20027;-78
2022/10/12 10:46:30;;;;;;;20.95;12.45;;;;;;;20.57;72.53;98119.97;5088918;28;20077;-79
2022/10/12 10:49:00;;;;;;;25.90;11.40;;;;;;;20.58;73.20;98126.25;5069052;28;20480;-79
2022/10/12 10:51:45;;;;;;;19.92;10.68;;;;;;;20.74;71.96;98121.09;5071475;28;20044;-79
2022/10/12 10:54:23;;;;;;;16.60;11.05;;;;;;;20.50;71.99;98111.50;5065592;28;20107;-77
2022/10/12 10:56:51;;;;;;;20.85;10.52;;;;;;;20.60;71.06;98103.34;5078679;28;20508;-79
2022/10/12 10:59:33;;;;;;;16.73;10.20;;;;;;;20.62;70.29;98105.91;5070655;28;20024;-78
2022/10/12 11:02:02;;;;;;;16.10;10.27;;;;;;;20.73;69.64;98103.94;5079157;28;20024;-78
2022/10/12 11:04:38;;;;;;;18.25;9.75;;;;;;;20.74;70.05;98104.75;5061954;28;20464;-79
2022/10/12 11:07:27;;;;;;;21.67;9.88;;;;;;;20.70;71.03;98103.34;5053837;28;20032;-78
2022/10/12 11:09:55;;;;;;;21.38;9.88;;;;;;;20.93;69.56;98099.31;5062773;28;20035;-77
2022/10/12 11:12:28;;;;;;;21.58;10.70;;;;;;;21.46;67.89;98103.22;5087203;28;20020;-80
2022/10/12 11:15:23;;;;;;;15.57;9.80;;;;;;;21.59;66.43;98086.53;5057630;28;20028;-77
2022/10/12 11:17:59;;;;;;;15.60;8.98;;;;;;;21.78;66.15;98091.88;5073970;28;20475;-76
2022/10/12 11:21:00;;;;;;;15.45;9.43;;;;;;;20.72;69.34;98077.72;5067539;28;20035;-75
2022/10/12 11:23:52;;;;;;;15.52;9.50;;;;;;;20.98;69.36;98084.25;5067177;28;20119;-75
2022/10/12 11:26:39;;;;;;;15.90;9.50;;;;;;;21.03;68.87;98084.69;5075577;28;20131;-76